Brecon, United Kingdom
Current Conditions -  °F | °C
As of 8:20 AM on Monday 24 Nov 2014 (Local Time) from EGFF Reporting Station
Clear Clear  
Wind Chill:   Ceiling: Unl
Heat Index:   Visibility: 6mi
Dew Point:   Wind: 1mph
Humidity: 93%   Direction: 60°ENE
Pressure: 30.3"   Gusts: NA
Location:  51.95°N, 3.39°W
Report Text: EGFF 240820Z AUTO 06001KT 9999 NCD 01/00 Q1026
Loading
Personal Weather Stations






























Interactive Weather Map New forecast layout! Learn more

10-Day Weather Forecast

Advertisements
Track Severe Weather on mobile